Time;durP1;ratioP1;P1;durP2;ratioP2;P2;SDS_P1;SDS_P2;PMS_P1;PMS_P2;Temp;Humidity;BMP_temperature;BMP_pressure;BME280_temperature;BME280_humidity;BME280_pressure;Samples;Min_cycle;Max_cycle;Signal;HPM_P1;HPM_P2
2021/10/13 00:20:57;;;;;;;9.90;8.60;;;6.00;99.90;;;;;;5405413;23;20473;-93
2021/10/13 00:23:51;;;;;;;9.60;7.97;;;5.90;99.90;;;;;;4981105;28;20234;-92
2021/10/13 00:26:42;;;;;;;11.97;9.20;;;5.90;99.90;;;;;;4981984;28;20170;-93
2021/10/13 00:29:49;;;;;;;11.30;8.02;;;6.00;99.90;;;;;;4979176;28;20413;-93
2021/10/13 01:11:42;;;;;;;9.93;7.72;;;5.90;99.90;;;;;;4922812;29;20204;-94
2021/10/13 01:14:19;;;;;;;8.20;7.43;;;5.70;99.90;;;;;;4925057;29;20567;-93
2021/10/13 01:53:12;;;;;;;10.15;8.60;;;5.70;99.90;;;;;;5228207;23;20244;-94
2021/10/13 01:58:16;;;;;;;9.77;8.70;;;5.50;99.90;;;;;;5226135;23;20244;-94
2021/10/13 02:00:46;;;;;;;11.10;7.93;;;5.30;99.90;;;;;;4901307;29;20188;-92
2021/10/13 02:03:13;;;;;;;11.10;10.00;;;5.30;99.90;;;;;;4901012;29;20173;-93
2021/10/13 02:05:46;;;;;;;10.68;9.10;;;6.10;99.90;;;;;;4888753;29;20446;-95
2021/10/13 02:08:20;;;;;;;10.65;9.50;;;5.30;99.90;;;;;;4903798;29;20185;-93
2021/10/13 02:11:09;;;;;;;11.13;8.75;;;5.30;99.90;;;;;;4904184;29;20160;-93
2021/10/13 02:14:02;;;;;;;10.77;9.32;;;5.50;99.90;;;;;;4873152;29;20193;-94
2021/10/13 02:17:13;;;;;;;16.10;9.80;;;6.00;99.90;;;;;;4884983;29;20241;-93
2021/10/13 02:19:51;;;;;;;12.07;9.00;;;8.10;99.90;;;;;;4884719;29;20162;-93
2021/10/13 02:22:31;;;;;;;13.93;9.35;;;7.30;99.90;;;;;;4882835;29;20166;-94
2021/10/13 02:24:59;;;;;;;17.17;10.60;;;5.20;99.90;;;;;;4869854;29;20198;-93
2021/10/13 02:28:13;;;;;;;12.32;9.80;;;4.50;99.90;;;;;;4882426;29;20766;-93
2021/10/13 02:31:04;;;;;;;8.07;7.35;;;5.30;99.90;;;;;;4866160;29;20211;-93
2021/10/13 02:36:19;;;;;;;11.05;8.60;;;5.30;99.90;;;;;;5380544;23;20441;-94
2021/10/13 02:38:47;;;;;;;9.50;8.45;;;5.30;99.90;;;;;;4906974;29;20306;-93
2021/10/13 02:41:13;;;;;;;8.90;8.02;;;;;;;;;;4923225;29;20204;-92
2021/10/13 02:43:50;;;;;;;15.95;9.32;;;5.20;99.90;;;;;;4906921;29;20192;-94
2021/10/13 02:46:25;;;;;;;9.25;8.35;;;7.80;99.90;;;;;;4923205;29;20176;-93
2021/10/13 02:49:01;;;;;;;9.68;8.88;;;9.40;99.90;;;;;;4907297;29;20172;-94
2021/10/13 02:52:08;;;;;;;9.35;8.43;;;8.80;99.90;;;;;;4906781;29;20168;-93
2021/10/13 02:54:47;;;;;;;10.10;9.20;;;7.90;99.90;;;;;;4876504;29;20204;-93
2021/10/13 02:57:22;;;;;;;13.85;9.02;;;5.30;99.90;;;;;;4906308;29;20181;-94
2021/10/13 03:02:34;;;;;;;13.13;11.05;;;5.20;99.90;;;;;;5010288;23;20248;-93
2021/10/13 03:07:48;;;;;;;16.50;12.10;;;5.30;99.90;;;;;;5782596;23;20248;-92
2021/10/13 03:10:19;;;;;;;13.68;10.90;;;5.30;99.90;;;;;;4905383;29;20199;-93
2021/10/13 03:12:57;;;;;;;17.95;13.27;;;9.40;99.90;;;;;;4920423;29;20180;-94
2021/10/13 03:15:29;;;;;;;12.38;9.13;;;7.30;99.90;;;;;;4919386;29;20213;-94
2021/10/13 03:17:57;;;;;;;12.05;9.10;;;5.20;99.90;;;;;;4916471;29;20200;-92
2021/10/13 03:20:27;;;;;;;9.60;7.65;;;5.10;99.90;;;;;;4920338;29;20173;-94
2021/10/13 03:23:17;;;;;;;11.25;9.63;;;7.50;99.90;;;;;;4917871;29;20571;-93
2021/10/13 03:25:49;;;;;;;9.60;8.80;;;5.10;99.90;;;;;;4918006;29;20173;-94
2021/10/13 03:28:19;;;;;;;11.93;9.45;;;5.30;99.90;;;;;;4917190;29;20181;-93
2021/10/13 03:30:51;;;;;;;9.57;8.73;;;4.70;99.90;;;;;;4920694;29;20176;-94
2021/10/13 03:33:32;;;;;;;9.00;8.20;;;7.20;99.90;;;;;;4903453;29;20429;-91
2021/10/13 03:36:12;;;;;;;10.45;8.13;;;5.30;99.90;;;;;;4904106;29;20196;-95
2021/10/13 03:39:00;;;;;;;13.82;9.32;;;5.40;99.90;;;;;;4965009;23;20236;-92
2021/10/13 03:46:44;;;;;;;9.23;8.33;;;;;;;;;;4948278;23;20226;-93
2021/10/13 03:49:10;;;;;;;9.60;8.70;;;5.50;99.90;;;;;;4919293;29;20465;-93
2021/10/13 03:51:38;;;;;;;9.07;8.27;;;;;;;;;;4920964;29;20421;-92
2021/10/13 03:56:42;;;;;;;9.70;8.85;;;;;;;;;;5040533;23;20235;-94
2021/10/13 03:59:08;;;;;;;11.68;9.85;;;;;;;;;;4919231;29;20193;-90
2021/10/13 04:02:21;;;;;;;;;;;;;;;;;;;;;
2021/10/13 04:04:47;;;;;;;9.73;8.88;;;6.10;99.90;;;;;;4917561;29;20461;-92
2021/10/13 04:07:59;;;;;;;11.70;7.70;;;4.80;99.90;;;;;;4919071;29;20177;-93
2021/10/13 04:10:40;;;;;;;11.57;9.57;;;5.70;99.90;;;;;;4919063;29;20433;-93
2021/10/13 04:13:44;;;;;;;9.98;9.07;;;8.40;99.90;;;;;;4919337;29;20422;-92
2021/10/13 04:16:10;;;;;;;11.93;9.17;;;8.40;99.90;;;;;;4915360;29;20196;-88
2021/10/13 04:18:39;;;;;;;25.30;11.03;;;6.50;99.90;;;;;;4914335;29;20442;-92
2021/10/13 04:21:19;;;;;;;12.13;10.85;;;8.40;99.90;;;;;;4915997;29;20405;-93
2021/10/13 04:23:49;;;;;;;15.00;11.00;;;9.90;99.90;;;;;;4899699;29;20204;-94
2021/10/13 04:26:16;;;;;;;13.65;11.15;;;9.00;99.90;;;;;;4918160;29;20216;-91
2021/10/13 04:41:52;;;;;;;10.90;9.80;;;5.80;99.90;;;;;;5012953;23;20235;-93
2021/10/13 04:44:22;;;;;;;16.13;11.80;;;10.60;99.90;;;;;;4924256;29;20157;-93
2021/10/13 04:47:03;;;;;;;11.27;10.27;;;7.40;99.90;;;;;;4923308;29;20413;-94
2021/10/13 04:49:58;;;;;;;12.85;10.80;;;8.70;99.90;;;;;;4921610;29;20425;-93
2021/10/13 04:53:00;;;;;;;18.27;11.30;;;8.80;99.90;;;;;;4911889;29;20213;-93
2021/10/13 04:55:51;;;;;;;20.13;12.60;;;8.80;99.90;;;;;;4903867;29;20220;-94
2021/10/13 04:58:22;;;;;;;12.10;10.47;;;6.20;99.90;;;;;;5113575;23;20555;-92
2021/10/13 05:00:48;;;;;;;13.75;12.38;;;6.10;99.90;;;;;;5324679;23;20993;-93
2021/10/13 05:06:00;;;;;;;13.77;12.40;;;6.10;99.90;;;;;;5398634;23;20292;-90
2021/10/13 05:17:17;;;;;;;16.05;13.35;;;8.60;99.90;;;;;;1112337;23;20719;-88
2021/10/13 05:19:48;;;;;;;16.00;13.13;;;8.60;99.90;;;;;;4908835;29;20336;-94
2021/10/13 05:22:14;;;;;;;16.43;13.77;;;7.90;99.90;;;;;;4913288;29;20417;-93
2021/10/13 05:24:50;;;;;;;17.30;13.23;;;6.20;99.90;;;;;;4908986;29;20523;-90
2021/10/13 05:27:17;;;;;;;17.87;13.73;;;;;;;;;;4908501;29;20620;-92
2021/10/13 05:29:45;;;;;;;16.55;12.85;;;6.00;99.90;;;;;;4909075;29;20417;-94
2021/10/13 05:32:10;;;;;;;24.60;14.00;;;8.20;99.90;;;;;;4906949;29;20188;-92
2021/10/13 05:34:36;;;;;;;13.93;11.93;;;;;;;;;;4887586;29;20243;-90
2021/10/13 05:37:02;;;;;;;15.97;12.13;;;;;;;;;;4905955;29;20188;-90
2021/10/13 05:39:28;;;;;;;19.48;12.70;;;;;;;;;;4906858;29;20428;-92
2021/10/13 05:41:56;;;;;;;14.05;11.50;;;5.90;99.90;;;;;;4906039;29;20218;-92
2021/10/13 05:44:27;;;;;;;17.38;14.50;;;4.00;99.90;;;;;;4907239;29;20168;-92
2021/10/13 05:46:55;;;;;;;26.52;15.73;;;8.20;99.90;;;;;;4912852;29;20184;-93
2021/10/13 05:49:22;;;;;;;24.23;17.60;;;;;;;;;;4910956;29;20188;-92
2021/10/13 05:51:48;;;;;;;24.50;18.17;;;5.70;99.90;;;;;;4912003;29;20417;-91
2021/10/13 05:54:15;;;;;;;24.27;16.63;;;;;;;;;;4915053;29;20487;-93
2021/10/13 05:56:44;;;;;;;27.45;18.75;;;5.60;99.90;;;;;;4910804;29;20440;-90
2021/10/13 05:59:19;;;;;;;30.20;18.88;;;5.60;99.90;;;;;;4916358;29;20206;-91
2021/10/13 06:02:01;;;;;;;27.90;18.90;;;7.70;99.90;;;;;;4918275;29;20183;-93
2021/10/13 06:04:31;;;;;;;34.30;18.87;;;8.10;99.90;;;;;;4902193;29;20398;-93
2021/10/13 06:07:01;;;;;;;29.70;18.77;;;6.30;99.90;;;;;;4914347;29;20784;-92
2021/10/13 06:09:31;;;;;;;30.60;18.13;;;6.70;99.90;;;;;;4900810;29;20205;-94
2021/10/13 06:12:01;;;;;;;22.88;17.90;;;8.70;99.90;;;;;;4914538;29;20199;-93
2021/10/13 06:14:27;;;;;;;25.85;17.38;;;;;;;;;;4910370;29;20208;-91
2021/10/13 06:16:53;;;;;;;24.23;17.57;;;;;;;;;;4908663;29;20241;-93
2021/10/13 06:19:21;;;;;;;32.43;16.23;;;6.30;99.90;;;;;;4907791;29;20529;-92
2021/10/13 06:21:47;;;;;;;21.83;15.55;;;;;;;;;;4909333;29;20440;-93
2021/10/13 06:24:15;;;;;;;20.80;17.50;;;6.50;99.90;;;;;;4908031;29;20227;-93
2021/10/13 06:26:44;;;;;;;25.30;18.47;;;8.20;99.90;;;;;;4917079;29;20565;-94
2021/10/13 06:29:10;;;;;;;17.73;13.90;;;;;;;;;;4909367;29;20463;-89
2021/10/13 06:31:39;;;;;;;24.13;16.43;;;6.70;99.90;;;;;;4909399;29;20429;-93
2021/10/13 06:34:08;;;;;;;26.90;17.87;;;8.10;99.90;;;;;;4906339;29;20541;-92
2021/10/13 06:36:36;;;;;;;22.15;17.65;;;7.40;99.90;;;;;;4893013;29;20524;-91
2021/10/13 06:39:03;;;;;;;25.73;19.40;;;8.40;99.90;;;;;;4903803;29;20177;-93
2021/10/13 06:41:30;;;;;;;26.70;19.67;;;9.10;99.90;;;;;;4909515;29;20484;-93
2021/10/13 06:43:56;;;;;;;27.43;19.13;;;7.40;99.90;;;;;;4909006;29;20252;-91
2021/10/13 06:46:24;;;;;;;29.20;18.57;;;;;;;;;;4909336;29;20219;-92
2021/10/13 06:48:50;;;;;;;27.17;18.50;;;;;;;;;;4907490;29;20518;-90
2021/10/13 06:51:16;;;;;;;25.20;18.17;;;;;;;;;;4905940;29;20504;-92
2021/10/13 06:53:46;;;;;;;27.73;15.87;;;;;;;;;;4904617;29;20528;-93
2021/10/13 06:56:12;;;;;;;24.43;16.63;;;7.40;99.90;;;;;;4905513;29;20838;-91
2021/10/13 06:58:38;;;;;;;22.93;16.70;;;;;;;;;;4903946;29;20429;-91
2021/10/13 07:01:04;;;;;;;19.90;17.70;;;7.60;99.90;;;;;;4906544;29;20429;-92
2021/10/13 07:03:40;;;;;;;21.63;17.10;;;9.10;99.90;;;;;;4908713;29;20421;-91
2021/10/13 07:06:06;;;;;;;24.13;16.00;;;;;;;;;;4878134;29;20439;-91
2021/10/13 07:08:34;;;;;;;21.57;15.97;;;7.50;99.90;;;;;;4905384;29;20421;-91
2021/10/13 07:11:00;;;;;;;17.95;14.07;;;;;;;;;;4902408;29;20425;-91
2021/10/13 07:13:26;;;;;;;26.17;16.53;;;;;;;;;;4901469;29;20181;-92
2021/10/13 07:15:52;;;;;;;20.97;15.30;;;;;;;;;;4902164;29;20427;-91
2021/10/13 07:18:18;;;;;;;18.07;14.90;;;7.50;99.90;;;;;;4900169;29;20543;-91
2021/10/13 07:20:44;;;;;;;25.00;16.00;;;7.30;99.90;;;;;;4901288;29;20429;-92
2021/10/13 07:23:09;;;;;;;22.73;16.17;;;9.20;99.90;;;;;;4900903;29;20445;-90
2021/10/13 07:25:35;;;;;;;18.97;15.03;;;6.60;99.90;;;;;;4906098;29;20465;-88
2021/10/13 07:28:04;;;;;;;17.37;15.57;;;9.10;99.90;;;;;;4886821;29;20200;-89
2021/10/13 07:30:31;;;;;;;15.43;14.00;;;8.10;99.90;;;;;;4901720;29;20728;-92
2021/10/13 07:32:57;;;;;;;15.27;13.67;;;8.10;99.90;;;;;;4901703;29;20421;-92
2021/10/13 07:35:27;;;;;;;14.37;12.67;;;6.20;99.90;;;;;;4902444;29;20511;-92
2021/10/13 07:37:56;;;;;;;14.97;13.27;;;8.40;99.90;;;;;;4901032;29;20516;-90
2021/10/13 07:40:23;;;;;;;13.53;12.17;;;8.00;99.90;;;;;;4902517;29;20940;-91
2021/10/13 07:42:49;;;;;;;15.53;14.03;;;;;;;;;;4902563;29;20417;-91
2021/10/13 07:45:18;;;;;;;18.33;13.07;;;8.40;99.90;;;;;;4902695;29;20425;-90
2021/10/13 07:47:44;;;;;;;17.57;14.30;;;;;;;;;;4887734;29;20435;-90
2021/10/13 07:50:11;;;;;;;16.30;11.90;;;8.60;99.90;;;;;;4902864;29;20421;-91
2021/10/13 07:52:37;;;;;;;20.13;15.33;;;;;;;;;;4903703;29;20425;-91
2021/10/13 07:55:06;;;;;;;22.63;16.37;;;8.50;99.90;;;;;;4902265;29;20484;-92
2021/10/13 07:57:32;;;;;;;23.73;14.93;;;11.00;99.90;;;;;;4902410;29;20425;-91
2021/10/13 07:59:58;;;;;;;27.73;16.10;;;;;;;;;;4905347;29;20441;-92
2021/10/13 08:02:24;;;;;;;16.67;15.10;;;8.30;99.90;;;;;;4900852;29;20421;-92
2021/10/13 08:04:50;;;;;;;17.93;16.17;;;;;;;;;;4873672;29;20425;-92
2021/10/13 08:07:18;;;;;;;16.93;13.10;;;8.60;99.90;;;;;;4905080;29;20424;-91
2021/10/13 08:09:44;;;;;;;14.73;13.17;;;;;;;;;;4906635;29;20417;-91
2021/10/13 08:12:10;;;;;;;18.30;16.00;;;;;;;;;;4906995;29;20419;-92
2021/10/13 08:14:39;;;;;;;17.50;15.70;;;8.80;99.90;;;;;;4908948;29;20480;-92
2021/10/13 08:17:07;;;;;;;20.80;15.73;;;8.30;99.90;;;;;;4894229;29;20429;-90
2021/10/13 08:19:35;;;;;;;24.77;16.23;;;;;;;;;;4892367;29;20477;-91
2021/10/13 08:22:04;;;;;;;15.87;14.10;;;9.60;99.90;;;;;;4905403;29;20433;-93
2021/10/13 08:24:30;;;;;;;15.30;13.90;;;11.30;99.90;;;;;;4907176;29;20424;-94
2021/10/13 08:26:56;;;;;;;13.70;12.30;;;;;;;;;;4908607;29;20429;-91
2021/10/13 08:29:22;;;;;;;11.90;10.90;;;10.80;99.90;;;;;;4896517;29;20561;-93
2021/10/13 08:31:48;;;;;;;12.73;11.40;;;;;;;;;;4887452;29;20426;-94
2021/10/13 08:34:13;;;;;;;12.87;11.57;;;11.40;99.90;;;;;;4886929;29;20224;-92
2021/10/13 08:36:39;;;;;;;12.57;11.57;;;11.40;99.90;;;;;;4888075;29;20425;-92
2021/10/13 08:39:05;;;;;;;11.27;10.33;;;11.20;99.90;;;;;;4888737;29;20177;-90
2021/10/13 08:41:35;;;;;;;13.70;11.93;;;11.40;99.90;;;;;;4219864;29;10000688;-91
2021/10/13 08:44:03;;;;;;;17.73;11.73;;;11.30;99.90;;;;;;4906648;29;20191;-93
2021/10/13 08:46:31;;;;;;;13.83;11.93;;;11.30;99.90;;;;;;4908242;29;20417;-91
2021/10/13 08:48:59;;;;;;;15.30;12.50;;;11.10;99.90;;;;;;4906658;29;20448;-91
2021/10/13 08:51:24;;;;;;;16.03;12.70;;;11.10;99.90;;;;;;4905716;29;20429;-92
2021/10/13 08:53:50;;;;;;;15.23;9.40;;;11.20;99.90;;;;;;4905088;29;20468;-91
2021/10/13 08:56:16;;;;;;;11.70;10.70;;;11.80;99.90;;;;;;4907738;29;20169;-92
2021/10/13 08:58:42;;;;;;;11.83;10.07;;;12.30;99.90;;;;;;4910424;29;20165;-92
2021/10/13 09:01:12;;;;;;;11.57;9.40;;;12.80;99.90;;;;;;4907175;29;20228;-93
2021/10/13 09:03:55;;;;;;;8.70;7.90;;;14.20;95.70;;;;;;4907819;29;20909;-86
2021/10/13 09:06:24;;;;;;;8.30;7.70;;;15.30;90.90;;;;;;4908759;29;20546;-91
2021/10/13 09:08:57;;;;;;;14.93;8.13;;;15.70;92.20;;;;;;4910237;29;20425;-91
2021/10/13 09:11:36;;;;;;;13.60;8.80;;;16.50;85.60;;;;;;4909316;29;20428;-89
2021/10/13 09:14:31;;;;;;;9.83;9.00;;;15.90;99.90;;;;;;4905711;29;20457;-92
2021/10/13 09:17:08;;;;;;;8.17;7.67;;;17.40;89.90;;;;;;4896719;29;20425;-92
2021/10/13 09:19:43;;;;;;;9.47;8.60;;;19.40;73.80;;;;;;4906791;29;20479;-92
2021/10/13 09:22:13;;;;;;;10.70;9.70;;;18.90;83.20;;;;;;4907176;29;20780;-92
2021/10/13 09:24:41;;;;;;;8.43;7.73;;;18.90;89.40;;;;;;4906928;29;20428;-93
2021/10/13 09:27:24;;;;;;;10.30;9.23;;;19.20;88.90;;;;;;4905441;29;20520;-91
2021/10/13 09:30:07;;;;;;;;;;;;;;;;;;;;;
2021/10/13 09:32:41;;;;;;;10.40;9.60;;;19.40;74.90;;;;;;4910719;29;20831;-91
2021/10/13 09:35:34;;;;;;;12.03;9.17;;;19.60;71.60;;;;;;4906086;29;20465;-93
2021/10/13 09:38:00;;;;;;;10.30;9.40;;;19.90;66.50;;;;;;4892104;29;20496;-92
2021/10/13 09:40:33;;;;;;;12.23;11.20;;;18.90;66.70;;;;;;4908972;29;20433;-88
2021/10/13 09:42:59;;;;;;;11.17;10.03;;;23.30;66.60;;;;;;4893894;29;20520;-92
2021/10/13 09:45:29;;;;;;;11.40;9.90;;;22.50;63.00;;;;;;4907622;29;20428;-91
2021/10/13 09:48:18;;;;;;;11.20;9.90;;;21.40;64.40;;;;;;4912594;29;20424;-89
2021/10/13 09:51:35;;;;;;;21.10;11.07;;;20.10;61.40;;;;;;4898295;29;20459;-93
2021/10/13 09:54:31;;;;;;;14.80;10.20;;;20.50;58.70;;;;;;4897814;29;20533;-93
2021/10/13 09:57:19;;;;;;;13.00;10.40;;;22.00;59.20;;;;;;4893255;29;20465;-92
2021/10/13 10:00:11;;;;;;;11.00;10.00;;;21.30;56.00;;;;;;4914910;29;20423;-88
2021/10/13 10:03:08;;;;;;;11.10;10.00;;;22.20;56.70;;;;;;4894480;29;20504;-92
2021/10/13 10:05:53;;;;;;;;;;;;;;;;;;;;;
2021/10/13 10:08:41;;;;;;;11.27;9.43;;;;;;;;;;4866423;29;20482;-90
2021/10/13 10:11:51;;;;;;;;;;;;;;;;;;;;;
2021/10/13 10:14:59;;;;;;;10.07;9.07;;;;;;;;;;4917050;29;20991;-91
2021/10/13 10:18:01;;;;;;;;;;;;;;;;;;;;;
2021/10/13 10:21:27;;;;;;;;;;;;;;;;;;;;;
2021/10/13 10:24:21;;;;;;;9.00;8.30;;;23.40;52.70;;;;;;4885082;29;20456;-92
2021/10/13 10:27:40;;;;;;;9.03;8.33;;;23.40;52.00;;;;;;4915543;29;20425;-90
2021/10/13 10:33:58;;;;;;;;;;;;;;;;;;;;;
2021/10/13 10:40:07;;;;;;;10.53;9.20;;;20.70;53.70;;;;;;4813858;29;20420;-89
2021/10/13 10:42:49;;;;;;;10.47;9.50;;;19.20;57.70;;;;;;4820931;29;20437;-88
2021/10/13 10:45:23;;;;;;;11.17;10.10;;;17.60;61.40;;;;;;4871122;29;20595;-86
2021/10/13 10:47:49;;;;;;;13.17;12.07;;;19.30;72.80;;;;;;4902469;29;20476;-89
2021/10/13 10:50:47;;;;;;;15.87;14.27;;;16.30;81.40;;;;;;4904667;29;20513;-87
2021/10/13 10:53:21;;;;;;;18.03;11.97;;;15.60;78.70;;;;;;4902803;29;20177;-89
2021/10/13 10:55:49;;;;;;;12.60;11.50;;;15.60;80.60;;;;;;4897453;29;20480;-88
2021/10/13 10:58:22;;;;;;;11.10;10.20;;;17.80;83.70;;;;;;4883166;29;20425;-88
2021/10/13 11:01:15;;;;;;;12.17;11.00;;;17.60;74.60;;;;;;4898727;29;20421;-89
2021/10/13 11:03:42;;;;;;;12.90;11.77;;;18.70;71.90;;;;;;4901890;29;20424;-90
2021/10/13 11:06:18;;;;;;;14.20;13.00;;;19.60;74.10;;;;;;4900780;29;20441;-89
2021/10/13 11:09:11;;;;;;;13.77;12.37;;;15.50;74.60;;;;;;4896430;29;20876;-89
2021/10/13 11:11:49;;;;;;;12.37;11.37;;;16.70;74.00;;;;;;4904455;29;20988;-91
2021/10/13 11:14:24;;;;;;;11.40;10.47;;;17.10;77.60;;;;;;4893245;29;20513;-90
2021/10/13 11:20:15;;;;;;;11.40;10.17;;;17.40;74.00;;;;;;4912034;29;20905;-91
2021/10/13 11:22:46;;;;;;;11.93;10.83;;;17.40;74.40;;;;;;4914201;29;20408;-87
2021/10/13 11:25:23;;;;;;;10.23;9.53;;;16.90;76.40;;;;;;4894638;29;20443;-91
2021/10/13 11:28:09;;;;;;;9.77;8.80;;;16.80;77.60;;;;;;4911410;29;20420;-90
2021/10/13 11:30:45;;;;;;;10.23;9.40;;;15.80;75.50;;;;;;4910230;29;20423;-89
2021/10/13 11:33:14;;;;;;;9.13;8.20;;;14.90;73.80;;;;;;4908510;29;20436;-91
2021/10/13 11:35:48;;;;;;;9.10;8.40;;;18.40;80.40;;;;;;4909155;29;20946;-89
2021/10/13 11:38:32;;;;;;;13.80;10.17;;;18.30;83.90;;;;;;4911016;29;20416;-89
2021/10/13 11:41:17;;;;;;;7.67;7.00;;;17.10;83.50;;;;;;4909946;29;20501;-92
2021/10/13 11:43:48;;;;;;;7.07;6.63;;;16.40;77.60;;;;;;4911522;29;20421;-92
2021/10/13 11:46:26;;;;;;;9.37;7.20;;;16.10;80.00;;;;;;4910509;29;20429;-92
2021/10/13 11:48:53;;;;;;;6.40;5.83;;;17.60;77.10;;;;;;4895540;29;20429;-92
2021/10/13 11:52:05;;;;;;;5.17;4.77;;;19.20;78.30;;;;;;4909843;29;20844;-90
2021/10/13 11:54:31;;;;;;;6.23;5.70;;;18.30;67.00;;;;;;4910228;29;20469;-89
2021/10/13 11:57:17;;;;;;;;;;;;;;;;;;;;;
2021/10/13 11:59:52;;;;;;;4.03;3.73;;;18.60;65.20;;;;;;4912057;29;20255;-90
2021/10/13 12:02:27;;;;;;;3.60;3.30;;;18.70;71.00;;;;;;4911964;29;20408;-90
2021/10/13 12:04:55;;;;;;;3.10;3.00;;;20.20;76.60;;;;;;4914939;29;20429;-91
2021/10/13 12:07:33;;;;;;;3.63;2.87;;;16.50;71.30;;;;;;4908171;29;20528;-91
2021/10/13 12:10:01;;;;;;;3.53;3.23;;;16.50;74.70;;;;;;4892513;29;20430;-90
2021/10/13 12:12:36;;;;;;;3.50;3.03;;;17.90;79.10;;;;;;4892124;29;20410;-91
2021/10/13 12:15:21;;;;;;;3.70;3.40;;;15.30;77.60;;;;;;4552787;29;10000228;-91
2021/10/13 12:18:15;;;;;;;4.77;4.47;;;15.80;76.40;;;;;;4910252;29;20177;-91
2021/10/13 12:20:52;;;;;;;4.70;3.17;;;15.60;76.70;;;;;;4914487;29;20437;-91
2021/10/13 12:23:29;;;;;;;7.53;3.80;;;18.10;82.80;;;;;;4910436;29;20412;-89
2021/10/13 12:26:09;;;;;;;3.80;3.43;;;15.60;79.90;;;;;;4906470;29;20416;-91
2021/10/13 12:28:43;;;;;;;4.57;3.60;;;15.60;84.50;;;;;;4907892;29;20427;-90
2021/10/13 12:31:14;;;;;;;4.67;4.33;;;16.10;84.60;;;;;;4910849;29;20499;-90
2021/10/13 12:34:15;;;;;;;;;;;;;;;;;;;;;
2021/10/13 12:36:57;;;;;;;3.47;3.27;;;14.70;84.70;;;;;;4911478;29;20489;-92
2021/10/13 12:39:29;;;;;;;3.23;2.77;;;15.40;89.20;;;;;;4892323;29;20528;-90
2021/10/13 12:42:04;;;;;;;3.43;3.03;;;14.50;87.30;;;;;;4909971;29;20429;-89
2021/10/13 12:45:05;;;;;;;3.10;2.77;;;18.20;92.10;;;;;;4894893;29;20488;-90
2021/10/13 12:48:21;;;;;;;;;;;;;;;;;;;;;
2021/10/13 12:51:12;;;;;;;4.23;2.50;;;15.90;81.40;;;;;;4907567;29;20433;-91
2021/10/13 12:53:44;;;;;;;2.83;2.43;;;16.10;83.30;;;;;;4896214;29;20501;-91
2021/10/13 12:56:20;;;;;;;2.17;2.00;;;18.70;81.40;;;;;;4912012;29;20509;-90
2021/10/13 12:59:13;;;;;;;2.43;1.93;;;16.60;71.60;;;;;;4911547;29;20483;-91
2021/10/13 13:01:47;;;;;;;2.67;2.43;;;17.10;71.50;;;;;;4912530;29;20432;-90
2021/10/13 13:04:15;;;;;;;2.30;1.70;;;15.90;70.60;;;;;;4912060;29;20424;-91
2021/10/13 13:06:43;;;;;;;3.60;3.00;;;17.80;77.70;;;;;;4906189;29;20870;-91
2021/10/13 13:09:16;;;;;;;2.80;2.60;;;18.00;77.40;;;;;;4909104;29;20424;-91
2021/10/13 13:11:50;;;;;;;2.13;1.90;;;17.10;70.10;;;;;;4553159;29;10000146;-89
2021/10/13 13:14:16;;;;;;;1.80;1.70;;;17.40;71.20;;;;;;4892095;29;20237;-91
2021/10/13 13:17:12;;;;;;;2.80;2.20;;;19.20;73.70;;;;;;4910724;29;20443;-92
2021/10/13 13:19:32;;;;;;;1.90;1.50;;;17.80;73.00;;;;;;4891594;29;20489;-89
2021/10/13 13:22:06;;;;;;;2.67;1.97;;;17.50;73.70;;;;;;4907773;29;20413;-91
2021/10/13 13:24:42;;;;;;;3.33;1.70;;;16.40;66.80;;;;;;4911084;29;20417;-91
2021/10/13 13:27:13;;;;;;;3.57;2.17;;;17.30;64.20;;;;;;4909633;29;20980;-90
2021/10/13 13:29:38;;;;;;;1.53;1.23;;;18.40;66.60;;;;;;4910106;29;20413;-90
2021/10/13 13:32:07;;;;;;;2.20;1.50;;;18.10;64.20;;;;;;4911290;29;20516;-88
2021/10/13 13:34:41;;;;;;;1.10;1.10;;;17.50;64.50;;;;;;4913447;29;20205;-91
2021/10/13 13:37:13;;;;;;;1.43;1.30;;;19.40;64.10;;;;;;4911095;29;20444;-91
2021/10/13 13:39:39;;;;;;;2.50;1.90;;;17.30;61.80;;;;;;4899753;29;20425;-91
2021/10/13 13:42:47;;;;;;;;;;;;;;;;;;;;;
2021/10/13 13:45:44;;;;;;;;;;;;;;;;;;;;;
2021/10/13 13:48:28;;;;;;;2.67;2.07;;;17.30;65.70;;;;;;4844220;29;20474;-90
2021/10/13 14:00:53;;;;;;;5.17;2.87;;;18.00;69.20;;;;;;4881058;29;20425;-91
2021/10/13 14:07:13;;;;;;;;;;;;;;;;;;;;;
2021/10/13 14:09:58;;;;;;;1.90;1.80;;;17.80;69.60;;;;;;4914337;29;20529;-89
2021/10/13 14:12:44;;;;;;;3.13;1.90;;;16.10;69.00;;;;;;4898131;29;20481;-92
2021/10/13 14:15:48;;;;;;;1.60;1.60;;;16.10;68.90;;;;;;4912947;29;20458;-93
2021/10/13 14:18:20;;;;;;;1.83;1.80;;;15.50;79.00;;;;;;4889928;29;20426;-91
2021/10/13 14:21:11;;;;;;;;;;;;;;;;;;;;;
2021/10/13 14:23:41;;;;;;;2.63;1.80;;;17.50;77.50;;;;;;4884100;29;20464;-91
2021/10/13 14:26:15;;;;;;;3.10;2.03;;;15.20;78.00;;;;;;4914216;29;20410;-90
2021/10/13 14:28:54;;;;;;;4.90;2.27;;;15.60;74.40;;;;;;4913760;29;20489;-91
2021/10/13 14:35:08;;;;;;;10.77;2.30;;;17.60;80.90;;;;;;4882138;29;20481;-92
2021/10/13 14:38:04;;;;;;;2.10;2.00;;;14.80;77.40;;;;;;4892375;29;20422;-92
2021/10/13 14:40:34;;;;;;;1.50;1.40;;;14.80;80.50;;;;;;4886649;29;20434;-92
2021/10/13 14:43:16;;;;;;;3.63;2.63;;;17.10;82.90;;;;;;4889035;29;20426;-92
2021/10/13 14:45:43;;;;;;;2.00;1.90;;;14.80;79.60;;;;;;4900512;29;20433;-89
2021/10/13 14:48:11;;;;;;;2.43;2.23;;;17.10;82.30;;;;;;4893596;29;20460;-92
2021/10/13 14:50:37;;;;;;;4.10;2.07;;;17.00;87.10;;;;;;4893314;29;20417;-92
2021/10/13 14:53:09;;;;;;;3.13;2.23;;;14.50;77.70;;;;;;4895722;29;20429;-91
2021/10/13 14:55:37;;;;;;;10.70;2.77;;;16.10;85.10;;;;;;4895925;29;20216;-91
2021/10/13 14:58:03;;;;;;;2.77;2.57;;;14.70;78.30;;;;;;4892956;29;20578;-92
2021/10/13 15:00:29;;;;;;;2.80;1.40;;;;;;;;;;4891834;29;20414;-93
2021/10/13 15:02:55;;;;;;;4.63;2.20;;;14.50;78.20;;;;;;4875318;29;20237;-93
2021/10/13 15:05:21;;;;;;;2.10;1.87;;;;;;;;;;4874108;29;20478;-92
2021/10/13 15:07:47;;;;;;;2.93;2.10;;;14.40;79.10;;;;;;4871629;29;20182;-93
2021/10/13 15:10:15;;;;;;;5.07;2.13;;;16.40;89.60;;;;;;4870908;29;20570;-90
2021/10/13 15:12:41;;;;;;;2.57;2.30;;;16.50;87.40;;;;;;4874378;29;20177;-90
2021/10/13 15:15:08;;;;;;;6.80;2.10;;;13.80;83.30;;;;;;4874505;29;20493;-92
2021/10/13 15:17:43;;;;;;;2.80;2.30;;;16.60;88.10;;;;;;4887650;29;20422;-94
2021/10/13 15:20:11;;;;;;;9.83;3.70;;;13.70;80.20;;;;;;4891418;29;20480;-92
2021/10/13 15:22:44;;;;;;;2.77;2.57;;;14.70;83.80;;;;;;4875238;29;20429;-94
2021/10/13 15:25:12;;;;;;;7.97;2.70;;;15.30;84.10;;;;;;4876720;29;20942;-93
2021/10/13 15:27:38;;;;;;;2.53;2.33;;;14.60;88.60;;;;;;4891086;29;20430;-91
2021/10/13 15:30:11;;;;;;;5.50;2.60;;;16.40;90.10;;;;;;4878060;29;20429;-94
2021/10/13 15:33:00;;;;;;;3.43;2.60;;;14.80;85.60;;;;;;4968776;23;20240;-93
2021/10/13 15:35:31;;;;;;;2.10;2.00;;;14.80;90.30;;;;;;4880479;29;20501;-89
2021/10/13 15:38:06;;;;;;;3.47;2.13;;;15.70;90.30;;;;;;4893629;29;20467;-91
2021/10/13 15:40:32;;;;;;;2.23;2.03;;;14.10;87.10;;;;;;4893517;29;20413;-94
2021/10/13 15:43:03;;;;;;;5.93;2.97;;;17.70;92.60;;;;;;4878044;29;20438;-93
2021/10/13 15:45:33;;;;;;;3.00;2.80;;;15.30;89.10;;;;;;4894036;29;20446;-89
2021/10/13 15:48:21;;;;;;;2.80;2.60;;;16.00;91.20;;;;;;4891782;29;20434;-94
2021/10/13 15:51:26;;;;;;;;;;;;;;;;;;;;;
2021/10/13 15:53:55;;;;;;;3.97;2.27;;;14.40;91.00;;;;;;4887285;29;20583;-92
2021/10/13 15:56:25;;;;;;;3.47;3.03;;;14.00;93.40;;;;;;4874874;29;20446;-91
2021/10/13 15:58:53;;;;;;;2.83;2.63;;;14.00;91.60;;;;;;4877020;29;20442;-93
2021/10/13 16:01:19;;;;;;;3.17;3.00;;;16.80;92.60;;;;;;4877003;29;20551;-91
2021/10/13 16:03:51;;;;;;;2.83;1.77;;;16.30;92.30;;;;;;4878963;29;20422;-88
2021/10/13 16:06:30;;;;;;;2.43;2.07;;;13.90;91.00;;;;;;4878696;29;20426;-88
2021/10/13 16:08:57;;;;;;;1.73;1.63;;;13.30;88.10;;;;;;4877016;29;20454;-89
2021/10/13 16:11:24;;;;;;;2.20;1.70;;;15.80;90.40;;;;;;4873521;29;20469;-90
2021/10/13 16:13:52;;;;;;;2.13;2.03;;;15.20;89.40;;;;;;4872996;29;20422;-93
2021/10/13 16:16:23;;;;;;;1.87;1.70;;;15.10;90.40;;;;;;4891805;29;20422;-91
2021/10/13 16:18:51;;;;;;;4.00;1.97;;;15.10;90.00;;;;;;4873295;29;20494;-90
2021/10/13 16:21:18;;;;;;;3.23;2.23;;;14.10;93.20;;;;;;4888528;29;20436;-91
2021/10/13 16:23:46;;;;;;;2.20;2.00;;;14.60;90.50;;;;;;4873185;29;20430;-90
2021/10/13 16:26:15;;;;;;;2.50;2.40;;;13.90;91.30;;;;;;4873769;29;20499;-88
2021/10/13 16:29:03;;;;;;;2.03;1.90;;;12.00;92.40;;;;;;4542128;29;10000481;-88
2021/10/13 16:31:50;;;;;;;;;;;;;;;;;;;;;
2021/10/13 16:34:16;;;;;;;6.23;5.83;;;15.80;93.90;;;;;;4890520;29;20568;-93
2021/10/13 16:36:45;;;;;;;3.10;2.80;;;15.10;93.40;;;;;;4891458;29;20426;-93
2021/10/13 16:39:12;;;;;;;3.13;2.47;;;15.80;94.90;;;;;;4890549;29;20871;-90